createdAt,value
2023-05-14T00:00:14.703Z,28.25
2023-05-14T00:01:14.708Z,29.60
2023-05-14T00:02:14.745Z,30.00
2023-05-14T00:03:14.933Z,31.07
2023-05-14T00:04:14.781Z,30.06
2023-05-14T00:05:14.747Z,30.44
2023-05-14T00:06:14.752Z,30.84
2023-05-14T00:07:14.754Z,29.73
2023-05-14T00:08:14.767Z,29.78
2023-05-14T00:09:14.768Z,30.91
2023-05-14T00:10:14.794Z,26.51
2023-05-14T00:11:14.799Z,32.75
2023-05-14T00:12:14.794Z,30.19
2023-05-14T00:13:14.804Z,31.27
2023-05-14T00:14:14.833Z,28.83
2023-05-14T00:15:14.841Z,27.44
2023-05-14T00:16:14.955Z,29.22
2023-05-14T00:17:14.876Z,29.13
2023-05-14T00:18:14.875Z,30.32
2023-05-14T00:19:14.943Z,31.09
2023-05-14T00:20:14.945Z,31.65
2023-05-14T00:21:14.919Z,29.86
2023-05-14T00:22:14.932Z,30.30
2023-05-14T00:23:14.943Z,30.33
2023-05-14T00:24:14.949Z,29.06
2023-05-14T00:25:14.980Z,30.04
2023-05-14T00:26:14.978Z,28.76
2023-05-14T00:27:14.997Z,29.66
2023-05-14T00:28:15.027Z,28.66
2023-05-14T00:29:15.020Z,28.45
2023-05-14T00:30:15.049Z,26.44
2023-05-14T00:31:15.084Z,31.19
2023-05-14T00:32:15.069Z,27.77
2023-05-14T00:33:15.097Z,29.32
2023-05-14T00:34:15.110Z,33.61
2023-05-14T00:35:15.130Z,30.84
2023-05-14T00:36:15.132Z,29.81
2023-05-14T00:37:15.165Z,29.26
2023-05-14T00:38:15.166Z,32.16
2023-05-14T00:39:15.181Z,28.75
2023-05-14T00:40:15.210Z,26.03
2023-05-14T00:41:15.178Z,30.26
2023-05-14T00:42:15.201Z,30.60
2023-05-14T00:43:15.208Z,28.42
2023-05-14T00:44:15.230Z,32.28
2023-05-14T00:45:15.268Z,28.02
2023-05-14T00:46:15.266Z,33.30
2023-05-14T00:47:15.268Z,29.82
2023-05-14T00:48:15.276Z,30.19
2023-05-14T00:49:15.309Z,28.87
2023-05-14T00:50:15.328Z,30.85
2023-05-14T00:51:15.331Z,31.37
2023-05-14T00:52:15.354Z,30.18
2023-05-14T00:53:15.357Z,29.53
2023-05-14T00:54:15.371Z,28.96
2023-05-14T00:55:15.395Z,27.07
2023-05-14T00:56:15.444Z,28.68
2023-05-14T00:57:15.433Z,29.42
2023-05-14T00:58:15.450Z,29.19
2023-05-14T00:59:15.472Z,29.41
2023-05-14T01:00:15.492Z,27.01
2023-05-14T01:01:15.539Z,27.37
2023-05-14T01:02:15.518Z,28.56
2023-05-14T01:03:15.620Z,26.62
2023-05-14T01:04:15.553Z,29.89
2023-05-14T01:05:15.563Z,32.26
2023-05-14T01:06:15.587Z,29.65
2023-05-14T01:07:15.589Z,27.93
2023-05-14T01:08:15.605Z,31.64
2023-05-14T01:09:15.619Z,30.26
2023-05-14T01:10:15.633Z,29.78
2023-05-14T01:11:15.649Z,29.66
2023-05-14T01:12:15.659Z,29.49
2023-05-14T01:13:15.693Z,30.22
2023-05-14T01:14:15.727Z,32.67
2023-05-14T01:15:15.712Z,29.06
2023-05-14T01:16:15.777Z,29.00
2023-05-14T01:17:15.767Z,29.18
2023-05-14T01:18:15.781Z,29.72
2023-05-14T01:19:15.875Z,27.33
2023-05-14T01:20:15.823Z,29.56
2023-05-14T01:21:15.831Z,29.22
2023-05-14T01:22:15.854Z,28.21
2023-05-14T01:23:15.868Z,29.79
2023-05-14T01:24:15.883Z,28.68
2023-05-14T01:25:15.889Z,29.92
2023-05-14T01:26:15.927Z,31.43
2023-05-14T01:27:15.936Z,30.37
2023-05-14T01:28:15.966Z,30.13
2023-05-14T01:29:16.026Z,28.29
2023-05-14T01:30:16.084Z,27.75
2023-05-14T01:31:16.163Z,29.39
2023-05-14T01:32:16.184Z,30.30
2023-05-14T01:33:16.204Z,30.13
2023-05-14T01:34:16.226Z,29.30
2023-05-14T01:35:16.528Z,30.44
2023-05-14T01:36:16.250Z,31.25
2023-05-14T01:37:16.251Z,28.69
2023-05-14T01:38:16.262Z,30.32
2023-05-14T01:39:16.284Z,28.12
2023-05-14T01:40:16.327Z,29.22
2023-05-14T01:41:16.330Z,29.52
2023-05-14T01:42:16.354Z,27.97
2023-05-14T01:43:16.447Z,27.19
2023-05-14T01:44:16.390Z,28.68
2023-05-14T01:45:16.425Z,27.28
2023-05-14T01:46:16.485Z,28.40
2023-05-14T01:47:16.472Z,28.47
2023-05-14T01:48:16.479Z,28.46
2023-05-14T01:49:16.515Z,29.46
2023-05-14T01:50:16.516Z,27.60
2023-05-14T01:51:16.532Z,27.82
2023-05-14T01:52:16.561Z,28.50
2023-05-14T01:53:16.573Z,27.13
2023-05-14T01:54:16.589Z,29.28
2023-05-14T01:55:16.629Z,27.96
2023-05-14T01:56:16.623Z,29.43
2023-05-14T01:57:16.645Z,30.80
2023-05-14T01:58:16.662Z,30.51
2023-05-14T01:59:16.680Z,28.37
2023-05-14T02:00:16.707Z,30.05
2023-05-14T02:01:16.762Z,29.15
2023-05-14T02:02:16.745Z,27.97
2023-05-14T02:03:16.767Z,31.62
2023-05-14T02:04:16.845Z,30.35
2023-05-14T02:05:16.804Z,28.30
2023-05-14T02:06:16.834Z,27.63
2023-05-14T02:07:16.843Z,27.99
2023-05-14T02:08:16.870Z,27.16
2023-05-14T02:09:16.900Z,28.51
2023-05-14T02:10:16.929Z,27.41
2023-05-14T02:11:16.945Z,28.77
2023-05-14T02:12:16.963Z,28.51
2023-05-14T02:13:16.996Z,30.36
2023-05-14T02:14:17.015Z,29.76
2023-05-14T02:15:17.063Z,29.22
2023-05-14T02:16:17.073Z,30.48
2023-05-14T02:17:17.076Z,29.39
2023-05-14T02:18:17.076Z,30.74
2023-05-14T02:19:17.120Z,28.31
2023-05-14T02:20:17.153Z,28.80
2023-05-14T02:21:17.133Z,31.68
2023-05-14T02:22:17.167Z,28.14
2023-05-14T02:23:17.170Z,28.74
2023-05-14T02:24:17.224Z,27.44
2023-05-14T02:25:17.248Z,28.87
2023-05-14T02:26:17.287Z,28.96
2023-05-14T02:27:17.318Z,27.41
2023-05-14T02:28:17.345Z,27.36
2023-05-14T02:29:17.368Z,27.11
2023-05-14T02:30:17.401Z,28.96
2023-05-14T02:31:17.463Z,28.69
2023-05-14T02:32:17.509Z,29.41
2023-05-14T02:33:17.532Z,28.16
2023-05-14T02:34:17.463Z,29.78
2023-05-14T02:35:17.526Z,29.15
2023-05-14T02:36:17.507Z,31.32
2023-05-14T02:37:17.537Z,29.51
2023-05-14T02:38:17.555Z,29.10
2023-05-14T02:39:17.578Z,29.44
2023-05-14T02:40:17.790Z,29.14
2023-05-14T02:41:17.626Z,28.66
2023-05-14T02:42:17.649Z,28.48
2023-05-14T02:43:17.670Z,29.94
2023-05-14T02:44:17.709Z,26.61
2023-05-14T02:45:17.729Z,28.79
2023-05-14T02:46:17.781Z,29.11
2023-05-14T02:47:17.783Z,30.54
2023-05-14T02:48:17.801Z,28.96
2023-05-14T02:49:17.825Z,27.39
2023-05-14T02:50:17.857Z,28.66
2023-05-14T02:51:17.890Z,28.63
2023-05-14T02:52:17.908Z,28.92
2023-05-14T02:53:17.936Z,29.18
2023-05-14T02:54:17.962Z,26.64
2023-05-14T02:55:18.015Z,27.67
2023-05-14T02:56:18.010Z,28.66
2023-05-14T02:57:18.014Z,27.36
2023-05-14T02:58:18.032Z,27.94
2023-05-14T02:59:18.072Z,26.33
2023-05-14T03:00:18.109Z,27.97
2023-05-14T03:01:18.166Z,29.55
2023-05-14T03:02:18.222Z,27.39
2023-05-14T03:03:18.234Z,28.86
2023-05-14T03:04:18.208Z,27.54
2023-05-14T03:05:18.233Z,28.47
2023-05-14T03:06:18.250Z,27.44
2023-05-14T03:07:18.287Z,28.65
2023-05-14T03:08:18.305Z,27.20
2023-05-14T03:09:18.336Z,28.48
2023-05-14T03:10:18.351Z,29.06
2023-05-14T03:11:18.389Z,29.29
2023-05-14T03:12:18.421Z,29.81
2023-05-14T03:13:18.437Z,27.15
2023-05-14T03:14:18.470Z,28.16
2023-05-14T03:15:18.485Z,30.31
2023-05-14T03:16:18.530Z,28.98
2023-05-14T03:17:18.555Z,28.80
2023-05-14T03:18:18.586Z,27.90
2023-05-14T03:19:18.595Z,28.31
2023-05-14T03:20:18.619Z,27.92
2023-05-14T03:21:18.650Z,29.19
2023-05-14T03:22:18.660Z,31.09
2023-05-14T03:23:18.694Z,29.18
2023-05-14T03:24:18.735Z,31.20
2023-05-14T03:25:18.763Z,26.88
2023-05-14T03:26:18.822Z,26.89
2023-05-14T03:27:18.823Z,31.10
2023-05-14T03:28:18.883Z,29.27
2023-05-14T03:29:18.880Z,29.87
2023-05-14T03:30:18.912Z,28.81
2023-05-14T03:31:19.117Z,29.22
2023-05-14T03:32:19.006Z,25.94
2023-05-14T03:33:19.018Z,26.75
2023-05-14T03:34:19.053Z,28.42
2023-05-14T03:35:19.086Z,29.16
2023-05-14T03:36:19.119Z,29.75
2023-05-14T03:37:19.137Z,30.46
2023-05-14T03:38:19.196Z,27.34
2023-05-14T03:39:19.190Z,28.51
2023-05-14T03:40:19.221Z,26.54
2023-05-14T03:41:19.257Z,29.17
2023-05-14T03:42:19.267Z,28.77
2023-05-14T03:43:19.299Z,27.92
2023-05-14T03:44:19.337Z,29.95
2023-05-14T03:45:19.361Z,29.20
2023-05-14T03:46:19.399Z,29.59
2023-05-14T03:47:19.420Z,28.01
2023-05-14T03:48:19.537Z,29.67
2023-05-14T03:49:19.474Z,26.60
2023-05-14T03:50:19.504Z,28.90
2023-05-14T03:51:19.533Z,28.08
2023-05-14T03:52:19.549Z,28.16
2023-05-14T03:53:19.572Z,27.59
2023-05-14T03:54:19.590Z,27.98
2023-05-14T03:55:19.643Z,29.78
2023-05-14T03:56:19.633Z,30.57
2023-05-14T03:57:19.672Z,29.08
2023-05-14T03:58:19.682Z,28.97
2023-05-14T03:59:19.735Z,32.07
2023-05-14T04:00:19.752Z,31.66
2023-05-14T04:01:19.798Z,28.77
2023-05-14T04:02:19.838Z,29.12
2023-05-14T04:03:19.879Z,28.28
2023-05-14T04:04:19.868Z,32.54
2023-05-14T04:05:19.881Z,28.82
2023-05-14T04:06:19.922Z,29.15
2023-05-14T04:07:19.943Z,27.67
2023-05-14T04:08:19.973Z,27.42
2023-05-14T04:09:19.995Z,25.00
2023-05-14T04:10:20.023Z,28.43
2023-05-14T04:11:20.057Z,29.31
2023-05-14T04:12:20.065Z,28.04
2023-05-14T04:13:20.086Z,27.27
2023-05-14T04:14:20.121Z,27.19
2023-05-14T04:15:20.152Z,27.25
2023-05-14T04:16:20.248Z,28.29
2023-05-14T04:17:20.189Z,29.14
2023-05-14T04:18:20.211Z,27.66
2023-05-14T04:19:20.482Z,25.02
2023-05-14T04:20:20.253Z,27.02
2023-05-14T04:21:20.293Z,27.14
2023-05-14T04:22:20.315Z,26.87
2023-05-14T04:23:20.318Z,27.50
2023-05-14T04:24:20.329Z,26.88
2023-05-14T04:25:20.350Z,26.97
2023-05-14T04:26:20.366Z,27.91
2023-05-14T04:27:20.396Z,27.73
2023-05-14T04:28:20.412Z,26.68
2023-05-14T04:29:20.441Z,27.83
2023-05-14T04:30:20.467Z,28.86
2023-05-14T04:31:20.552Z,30.24
2023-05-14T04:32:20.485Z,27.27
2023-05-14T04:33:20.525Z,28.83
2023-05-14T04:34:20.533Z,28.99
2023-05-14T04:35:22.617Z,30.24
2023-05-14T04:36:20.548Z,31.94
2023-05-14T04:37:20.568Z,30.90
2023-05-14T04:38:20.534Z,30.35
2023-05-14T04:39:20.518Z,30.93
2023-05-14T04:40:20.517Z,28.76
2023-05-14T04:41:20.518Z,32.08
2023-05-14T04:42:20.499Z,28.61
2023-05-14T04:43:20.508Z,28.98
2023-05-14T04:44:20.489Z,28.14
2023-05-14T04:45:20.480Z,28.76
2023-05-14T04:46:20.607Z,27.99
2023-05-14T04:47:20.488Z,28.19
2023-05-14T04:48:20.464Z,27.12
2023-05-14T04:49:20.473Z,29.94
2023-05-14T04:50:20.460Z,29.64
2023-05-14T04:51:20.443Z,28.33
2023-05-14T04:52:20.443Z,28.70
2023-05-14T04:53:20.433Z,28.97
2023-05-14T04:54:20.453Z,28.11
2023-05-14T04:55:20.424Z,28.47
2023-05-14T04:56:20.411Z,29.12
2023-05-14T04:57:20.390Z,30.00
2023-05-14T04:58:20.390Z,29.83
2023-05-14T04:59:20.387Z,25.60
2023-05-14T05:00:20.414Z,27.27
2023-05-14T05:01:20.465Z,27.64
2023-05-14T05:02:20.368Z,27.28
2023-05-14T05:03:20.471Z,26.54
2023-05-14T05:04:20.440Z,28.97
2023-05-14T05:05:20.346Z,29.70
2023-05-14T05:06:20.369Z,28.19
2023-05-14T05:07:20.334Z,25.00
2023-05-14T05:08:20.334Z,27.42
2023-05-14T05:09:20.324Z,29.47
2023-05-14T05:10:20.307Z,26.23
2023-05-14T05:11:20.305Z,28.22
2023-05-14T05:12:20.311Z,28.34
2023-05-14T05:13:20.316Z,28.79
2023-05-14T05:14:20.282Z,29.41
2023-05-14T05:15:20.278Z,28.64
2023-05-14T05:16:20.320Z,27.34
2023-05-14T05:17:20.320Z,27.51
2023-05-14T05:18:20.251Z,28.87
2023-05-14T05:19:24.325Z,26.00
2023-05-14T05:20:21.345Z,26.30
2023-05-14T05:21:20.237Z,26.78
2023-05-14T05:22:20.314Z,27.23
2023-05-14T05:23:20.228Z,28.35
2023-05-14T05:24:20.233Z,29.70
2023-05-14T05:25:20.219Z,27.22
2023-05-14T05:26:20.206Z,29.78
2023-05-14T05:27:20.201Z,27.07
2023-05-14T05:28:20.177Z,28.09
2023-05-14T05:29:20.173Z,29.10
2023-05-14T05:30:20.173Z,27.34
2023-05-14T05:31:20.231Z,26.06
2023-05-14T05:32:20.165Z,29.78
2023-05-14T05:33:20.142Z,29.73
2023-05-14T05:34:20.163Z,26.08
2023-05-14T05:35:20.148Z,26.77
2023-05-14T05:36:20.166Z,28.09
2023-05-14T05:37:20.182Z,26.26
2023-05-14T05:38:20.215Z,25.50
2023-05-14T05:39:20.236Z,26.80
2023-05-14T05:40:20.279Z,27.61
2023-05-14T05:41:20.312Z,30.88
2023-05-14T05:42:20.345Z,27.37
2023-05-14T05:43:20.368Z,26.97
2023-05-14T05:44:20.397Z,28.94
2023-05-14T05:45:20.440Z,29.41
2023-05-14T05:46:20.541Z,26.54
2023-05-14T05:47:20.530Z,28.23
2023-05-14T05:48:20.545Z,27.47
2023-05-14T05:49:20.593Z,28.55
2023-05-14T05:50:20.723Z,27.52
2023-05-14T05:51:20.650Z,25.67
2023-05-14T05:52:20.686Z,26.95
2023-05-14T05:53:20.708Z,30.08
2023-05-14T05:54:20.745Z,29.41
2023-05-14T05:55:20.778Z,33.11
2023-05-14T05:56:20.796Z,29.19
2023-05-14T05:57:20.829Z,31.13
2023-05-14T05:58:20.883Z,30.29
2023-05-14T05:59:20.895Z,29.93
2023-05-14T06:00:20.992Z,29.19
2023-05-14T06:01:20.987Z,27.81
2023-05-14T06:02:21.047Z,29.16
2023-05-14T06:03:21.068Z,29.17
2023-05-14T06:04:21.043Z,29.09
2023-05-14T06:05:21.094Z,29.41
2023-05-14T06:06:21.084Z,28.10
2023-05-14T06:07:21.139Z,28.14
2023-05-14T06:08:21.189Z,27.82
2023-05-14T06:09:21.252Z,28.74
2023-05-14T06:10:21.468Z,29.04
2023-05-14T06:11:21.348Z,30.17
2023-05-14T06:12:21.400Z,30.10
2023-05-14T06:13:21.476Z,31.28
2023-05-14T06:14:21.507Z,30.87
2023-05-14T06:15:21.523Z,29.43
2023-05-14T06:16:21.583Z,29.62
2023-05-14T06:17:21.646Z,29.94
2023-05-14T06:18:21.621Z,28.74
2023-05-14T06:19:21.771Z,30.80
2023-05-14T06:20:22.003Z,29.48
2023-05-14T06:21:21.718Z,28.23
2023-05-14T06:22:21.755Z,28.31
2023-05-14T06:23:21.743Z,29.45
2023-05-14T06:24:21.784Z,30.24
2023-05-14T06:25:21.798Z,28.89
2023-05-14T06:26:21.868Z,28.45
2023-05-14T06:27:21.854Z,31.14
2023-05-14T06:28:21.875Z,28.78
2023-05-14T06:29:21.915Z,28.27
2023-05-14T06:30:22.139Z,28.23
2023-05-14T06:31:22.042Z,29.08
2023-05-14T06:32:22.053Z,27.65
2023-05-14T06:33:22.013Z,28.67
2023-05-14T06:34:22.035Z,27.97
2023-05-14T06:35:22.092Z,29.34
2023-05-14T06:36:22.097Z,29.04
2023-05-14T06:37:22.134Z,27.36
2023-05-14T06:38:22.173Z,29.75
2023-05-14T06:39:22.206Z,28.73
2023-05-14T06:40:22.574Z,29.78
2023-05-14T06:41:22.220Z,29.95
2023-05-14T06:42:22.267Z,26.73
2023-05-14T06:43:22.278Z,30.61
2023-05-14T06:44:22.303Z,29.23
2023-05-14T06:45:22.335Z,29.16
2023-05-14T06:46:22.355Z,29.13
2023-05-14T06:47:22.452Z,30.05
2023-05-14T06:48:22.493Z,28.10
2023-05-14T06:49:22.423Z,28.23
2023-05-14T06:50:22.629Z,28.86
2023-05-14T06:51:22.467Z,27.50
2023-05-14T06:52:22.506Z,27.92
2023-05-14T06:53:22.507Z,29.16
2023-05-14T06:54:22.537Z,26.03
2023-05-14T06:55:22.562Z,25.00
2023-05-14T06:56:22.577Z,30.59
2023-05-14T06:57:22.607Z,28.18
2023-05-14T06:58:22.618Z,31.15
2023-05-14T06:59:22.645Z,29.96
2023-05-14T07:00:22.864Z,28.65
2023-05-14T07:01:22.727Z,30.01
2023-05-14T07:02:22.743Z,25.00
2023-05-14T07:03:22.722Z,29.47
2023-05-14T07:04:22.840Z,31.99
2023-05-14T07:05:22.757Z,31.21
2023-05-14T07:06:22.773Z,32.06
2023-05-14T07:07:22.798Z,29.76
2023-05-14T07:08:22.827Z,30.05
2023-05-14T07:09:22.849Z,30.90
2023-05-14T07:10:23.070Z,30.14
2023-05-14T07:11:22.882Z,31.56
2023-05-14T07:12:22.905Z,30.48
2023-05-14T07:13:22.898Z,30.67
2023-05-14T07:14:22.914Z,28.25
2023-05-14T07:15:22.934Z,28.29
2023-05-14T07:16:22.980Z,28.51
2023-05-14T07:17:23.080Z,29.59
2023-05-14T07:18:22.984Z,27.31
2023-05-14T07:19:22.988Z,28.29
2023-05-14T07:20:23.202Z,31.64
2023-05-14T07:21:23.027Z,30.10
2023-05-14T07:22:23.042Z,26.20
2023-05-14T07:23:23.049Z,30.68
2023-05-14T07:24:23.056Z,29.16
2023-05-14T07:25:23.085Z,28.74
2023-05-14T07:26:23.092Z,26.92
2023-05-14T07:27:23.106Z,29.96
2023-05-14T07:28:23.136Z,29.67
2023-05-14T07:29:23.149Z,30.11
2023-05-14T07:30:23.294Z,33.04
2023-05-14T07:31:23.226Z,31.00
2023-05-14T07:32:23.177Z,31.25
2023-05-14T07:33:23.222Z,29.61
2023-05-14T07:34:23.218Z,29.98
2023-05-14T07:35:23.233Z,29.90
2023-05-14T07:36:23.239Z,32.95
2023-05-14T07:37:24.165Z,29.76
2023-05-14T07:38:23.273Z,30.74
2023-05-14T07:39:23.286Z,31.84
2023-05-14T07:40:23.451Z,25.89
2023-05-14T07:41:23.291Z,29.04
2023-05-14T07:42:35.352Z,30.77
2023-05-14T07:43:24.310Z,31.04
2023-05-14T07:44:23.279Z,30.85
2023-05-14T07:45:23.273Z,31.40
2023-05-14T07:46:23.284Z,30.17
2023-05-14T07:47:23.302Z,32.46
2023-05-14T07:48:23.311Z,29.54
2023-05-14T07:49:23.245Z,28.99
2023-05-14T07:50:23.373Z,29.23
2023-05-14T07:51:23.244Z,29.35
2023-05-14T07:52:23.234Z,26.30
2023-05-14T07:53:23.241Z,32.26
2023-05-14T07:54:23.220Z,29.09
2023-05-14T07:55:23.215Z,31.04
2023-05-14T07:56:23.206Z,30.74
2023-05-14T07:57:23.201Z,28.18
2023-05-14T07:58:23.196Z,26.38
2023-05-14T07:59:23.184Z,31.47
2023-05-14T08:00:23.392Z,29.70
2023-05-14T08:01:23.174Z,28.22
2023-05-14T08:02:23.289Z,29.85
2023-05-14T08:03:23.240Z,29.14
2023-05-14T08:04:23.187Z,27.01
2023-05-14T08:05:23.143Z,27.40
2023-05-14T08:06:23.131Z,31.67
2023-05-14T08:07:23.132Z,28.14
2023-05-14T08:08:23.122Z,27.89
2023-05-14T08:09:23.132Z,28.36
2023-05-14T08:10:23.603Z,26.76
2023-05-14T08:11:23.162Z,28.24
2023-05-14T08:12:23.102Z,28.19
2023-05-14T08:13:23.085Z,27.33
2023-05-14T08:14:23.082Z,28.81
2023-05-14T08:15:24.577Z,26.68
2023-05-14T08:16:23.094Z,29.86
2023-05-14T08:17:23.100Z,28.49
2023-05-14T08:18:23.078Z,27.53
2023-05-14T08:19:23.046Z,29.12
2023-05-14T08:20:23.148Z,26.23
2023-05-14T08:21:23.061Z,25.00
2023-05-14T08:22:23.055Z,28.51
2023-05-14T08:23:23.053Z,26.73
2023-05-14T08:24:23.032Z,28.71
2023-05-14T08:25:23.012Z,29.32
2023-05-14T08:26:23.013Z,28.26
2023-05-14T08:27:23.022Z,27.28
2023-05-14T08:28:22.990Z,28.04
2023-05-14T08:29:22.989Z,27.14
2023-05-14T08:30:23.364Z,28.34
2023-05-14T08:31:23.066Z,28.96
2023-05-14T08:32:24.140Z,27.43
2023-05-14T08:33:22.971Z,26.09
2023-05-14T08:34:22.958Z,28.83
2023-05-14T08:35:22.949Z,28.03
2023-05-14T08:36:22.942Z,27.11
2023-05-14T08:37:22.948Z,30.18
2023-05-14T08:38:22.944Z,27.14
2023-05-14T08:39:22.933Z,28.21
2023-05-14T08:40:23.250Z,28.13
2023-05-14T08:41:22.919Z,26.44
2023-05-14T08:42:22.915Z,28.11
2023-05-14T08:43:22.901Z,29.00
2023-05-14T08:44:22.932Z,26.02
2023-05-14T08:45:22.889Z,25.47
2023-05-14T08:46:22.884Z,30.12
2023-05-14T08:47:22.884Z,30.79
2023-05-14T08:48:22.913Z,28.02
2023-05-14T08:49:22.902Z,28.06
2023-05-14T08:50:23.728Z,30.99
2023-05-14T08:51:23.011Z,28.66
2023-05-14T08:52:23.076Z,29.18
2023-05-14T08:53:23.132Z,29.69
2023-05-14T08:54:23.187Z,29.04
2023-05-14T08:55:23.268Z,28.83
2023-05-14T08:56:23.363Z,25.14
2023-05-14T08:57:23.370Z,31.21
2023-05-14T08:58:23.426Z,28.31
2023-05-14T08:59:23.494Z,31.81
2023-05-14T09:00:23.809Z,29.38
2023-05-14T09:01:23.611Z,29.98
2023-05-14T09:02:23.682Z,30.49
2023-05-14T09:03:23.729Z,29.56
2023-05-14T09:04:23.748Z,27.05
2023-05-14T09:05:23.807Z,30.54
2023-05-14T09:06:23.851Z,32.60
2023-05-14T09:07:23.910Z,30.22
2023-05-14T09:08:23.998Z,27.55
2023-05-14T09:09:24.037Z,25.67
2023-05-14T09:10:24.412Z,31.17
2023-05-14T09:11:24.124Z,27.51
2023-05-14T09:12:24.167Z,31.27
2023-05-14T09:13:25.826Z,32.29
2023-05-14T09:14:24.243Z,34.38
2023-05-14T09:15:24.217Z,31.62
2023-05-14T09:16:24.252Z,32.63
2023-05-14T09:17:24.220Z,33.59
2023-05-14T09:18:24.180Z,28.82
2023-05-14T09:19:24.175Z,27.79
2023-05-14T09:20:24.499Z,30.15
2023-05-14T09:21:24.152Z,29.89
2023-05-14T09:22:24.158Z,29.18
2023-05-14T09:23:24.132Z,29.56
2023-05-14T09:24:24.178Z,29.02
2023-05-14T09:25:24.175Z,27.63
2023-05-14T09:26:24.122Z,29.65
2023-05-14T09:27:24.121Z,28.22
2023-05-14T09:28:24.107Z,33.96
2023-05-14T09:29:24.101Z,31.62
2023-05-14T09:30:24.250Z,32.74
2023-05-14T09:31:24.124Z,30.58
2023-05-14T09:32:24.143Z,32.70
2023-05-14T09:33:24.095Z,30.30
2023-05-14T09:34:24.068Z,28.99
2023-05-14T09:35:24.078Z,27.80
2023-05-14T09:36:24.051Z,32.23
2023-05-14T09:37:24.057Z,29.84
2023-05-14T09:38:24.037Z,32.56
2023-05-14T09:39:24.041Z,30.41
2023-05-14T09:40:24.861Z,29.01
2023-05-14T09:41:24.037Z,31.37
2023-05-14T09:42:24.018Z,31.47
2023-05-14T09:43:24.024Z,35.41
2023-05-14T09:44:24.007Z,29.56
2023-05-14T09:45:24.001Z,31.28
2023-05-14T09:46:23.985Z,28.94
2023-05-14T09:47:24.036Z,31.66
2023-05-14T09:48:24.032Z,29.35
2023-05-14T09:49:24.021Z,30.31
2023-05-14T09:50:24.088Z,30.61
2023-05-14T09:51:24.053Z,33.34
2023-05-14T09:52:24.107Z,32.39
2023-05-14T09:53:24.155Z,28.81
2023-05-14T09:54:24.196Z,29.28
2023-05-14T09:55:24.251Z,31.90
2023-05-14T09:56:24.362Z,30.37
2023-05-14T09:57:24.353Z,31.58
2023-05-14T09:58:24.431Z,30.82
2023-05-14T09:59:24.443Z,31.24
2023-05-14T10:00:24.724Z,31.96
2023-05-14T10:01:24.630Z,32.33
2023-05-14T10:02:24.696Z,31.15
2023-05-14T10:03:24.631Z,29.06
2023-05-14T10:04:24.753Z,30.28
2023-05-14T10:05:24.743Z,29.06
2023-05-14T10:06:24.782Z,30.67
2023-05-14T10:07:24.833Z,26.70
2023-05-14T10:08:24.866Z,25.00
2023-05-14T10:09:24.932Z,26.63
2023-05-14T10:10:25.233Z,27.72
2023-05-14T10:11:25.028Z,25.72
2023-05-14T10:12:25.071Z,31.37
2023-05-14T10:13:25.116Z,31.69
2023-05-14T10:14:25.162Z,31.71
2023-05-14T10:15:25.239Z,31.35
2023-05-14T10:16:25.274Z,33.23
2023-05-14T10:17:25.375Z,32.58
2023-05-14T10:18:25.393Z,30.69
2023-05-14T10:19:25.572Z,29.95
2023-05-14T10:20:25.679Z,31.09
2023-05-14T10:21:25.531Z,29.53
2023-05-14T10:22:25.589Z,29.93
2023-05-14T10:23:25.651Z,30.09
2023-05-14T10:24:25.687Z,29.86
2023-05-14T10:25:25.750Z,26.15
2023-05-14T10:26:25.808Z,26.41
2023-05-14T10:27:25.846Z,29.93
2023-05-14T10:28:25.896Z,25.40
2023-05-14T10:29:25.950Z,30.89
2023-05-14T10:30:26.174Z,26.28
2023-05-14T10:31:26.167Z,25.00
2023-05-14T10:32:26.304Z,29.60
2023-05-14T10:33:26.183Z,30.52
2023-05-14T10:34:26.230Z,33.56
2023-05-14T10:35:26.286Z,26.15
2023-05-14T10:36:26.342Z,28.73
2023-05-14T10:37:26.438Z,27.26
2023-05-14T10:38:26.443Z,30.33
2023-05-14T10:39:26.498Z,29.42
2023-05-14T10:40:26.780Z,31.15
2023-05-14T10:41:26.634Z,30.38
2023-05-14T10:42:26.692Z,31.15
2023-05-14T10:43:26.727Z,30.73
2023-05-14T10:44:26.798Z,29.04
2023-05-14T10:45:26.844Z,30.67
2023-05-14T10:46:26.917Z,31.53
2023-05-14T10:47:27.010Z,34.03
2023-05-14T10:48:27.013Z,36.91
2023-05-14T10:49:39.631Z,37.23
2023-05-14T10:50:28.098Z,37.32
2023-05-14T10:51:27.129Z,37.42
2023-05-14T10:52:27.104Z,31.79
2023-05-14T10:53:27.047Z,29.16
2023-05-14T10:54:27.051Z,30.19
2023-05-14T10:55:27.063Z,29.63
2023-05-14T10:56:27.032Z,29.55
2023-05-14T10:57:27.036Z,30.81
2023-05-14T10:58:27.016Z,26.89
2023-05-14T10:59:27.010Z,30.80
2023-05-14T11:00:27.026Z,25.00
2023-05-14T11:01:27.110Z,28.74
2023-05-14T11:02:27.214Z,28.86
2023-05-14T11:03:27.222Z,30.11
2023-05-14T11:04:27.263Z,28.13
2023-05-14T11:05:27.312Z,27.54
2023-05-14T11:06:27.370Z,26.51
2023-05-14T11:07:27.445Z,25.70
2023-05-14T11:08:29.301Z,28.82
2023-05-14T11:09:27.523Z,27.88
2023-05-14T11:10:27.566Z,30.58
2023-05-14T11:11:27.629Z,30.77
2023-05-14T11:12:27.688Z,31.44
2023-05-14T11:13:27.744Z,31.97
2023-05-14T11:14:27.773Z,31.05
2023-05-14T11:15:27.829Z,26.78
2023-05-14T11:16:27.910Z,29.56
2023-05-14T11:17:27.960Z,30.28
2023-05-14T11:18:28.060Z,26.40
2023-05-14T11:19:28.086Z,25.29
2023-05-14T11:20:28.137Z,25.72
2023-05-14T11:21:28.208Z,26.42
2023-05-14T11:22:28.226Z,31.06
2023-05-14T11:23:28.299Z,30.35
2023-05-14T11:24:28.348Z,26.96
2023-05-14T11:25:28.396Z,26.84
2023-05-14T11:26:28.532Z,29.55
2023-05-14T11:27:28.496Z,32.79
2023-05-14T11:28:28.572Z,34.49
2023-05-14T11:29:28.632Z,34.61
2023-05-14T11:30:28.665Z,29.57
2023-05-14T11:31:28.794Z,28.14
2023-05-14T11:32:28.834Z,29.13
2023-05-14T11:33:28.857Z,26.82
2023-05-14T11:34:28.884Z,25.43
2023-05-14T11:35:28.948Z,31.27
2023-05-14T11:36:28.994Z,37.01
2023-05-14T11:37:29.062Z,34.93
2023-05-14T11:38:29.112Z,30.84
2023-05-14T11:39:29.178Z,31.25
2023-05-14T11:40:29.242Z,32.29
2023-05-14T11:41:29.275Z,30.67
2023-05-14T11:42:29.340Z,34.13
2023-05-14T11:43:29.592Z,35.23
2023-05-14T11:44:29.536Z,35.40
2023-05-14T11:45:29.506Z,31.49
2023-05-14T11:46:29.590Z,33.28
2023-05-14T11:47:29.655Z,32.70
2023-05-14T11:48:29.686Z,35.03
2023-05-14T11:49:29.732Z,34.21
2023-05-14T11:50:29.797Z,35.37
2023-05-14T11:51:29.845Z,36.10
2023-05-14T11:52:29.912Z,34.22
2023-05-14T11:53:29.954Z,33.61
2023-05-14T11:54:30.068Z,34.76
2023-05-14T11:55:30.049Z,33.86
2023-05-14T11:56:30.115Z,35.66
2023-05-14T11:57:30.167Z,34.87
2023-05-14T11:58:30.249Z,33.65
2023-05-14T11:59:30.286Z,35.25
2023-05-14T12:00:30.343Z,36.04
2023-05-14T12:01:30.395Z,36.96
2023-05-14T12:02:30.540Z,36.81
2023-05-14T12:03:30.718Z,38.32
2023-05-14T12:04:30.683Z,38.19
2023-05-14T12:05:30.626Z,39.36
2023-05-14T12:06:30.681Z,36.63
2023-05-14T12:07:30.814Z,39.28
2023-05-14T12:08:30.811Z,39.57
2023-05-14T12:09:30.836Z,44.81
2023-05-14T12:10:30.900Z,43.17
2023-05-14T12:11:30.951Z,42.36
2023-05-14T12:12:31.010Z,42.50
2023-05-14T12:13:31.091Z,42.51
2023-05-14T12:14:31.166Z,46.23
2023-05-14T12:15:31.201Z,44.55
2023-05-14T12:16:31.343Z,45.69
2023-05-14T12:17:31.352Z,44.28
2023-05-14T12:18:31.619Z,47.13
2023-05-14T12:19:31.440Z,47.37
2023-05-14T12:20:31.472Z,46.41
2023-05-14T12:21:31.530Z,48.20
2023-05-14T12:22:31.584Z,47.10
2023-05-14T12:23:31.646Z,48.59
2023-05-14T12:24:31.700Z,49.17
2023-05-14T12:25:31.745Z,51.04
2023-05-14T12:26:31.798Z,51.48
2023-05-14T12:27:31.858Z,52.11
2023-05-14T12:28:31.925Z,50.87
2023-05-14T12:29:31.968Z,52.15
2023-05-14T12:30:32.029Z,55.32
2023-05-14T12:31:32.192Z,54.40
2023-05-14T12:32:32.192Z,51.27
2023-05-14T12:33:32.195Z,53.58
2023-05-14T12:34:32.290Z,53.32
2023-05-14T12:35:32.316Z,56.30
2023-05-14T12:36:32.355Z,57.95
2023-05-14T12:37:32.415Z,56.57
2023-05-14T12:38:32.485Z,54.04
2023-05-14T12:39:32.523Z,54.68
2023-05-14T12:40:32.573Z,58.65
2023-05-14T12:41:32.648Z,59.27
2023-05-14T12:42:32.694Z,56.83
2023-05-14T12:43:32.749Z,57.91
2023-05-14T12:44:32.802Z,58.24
2023-05-14T12:45:32.854Z,55.95
2023-05-14T12:46:32.931Z,56.19
2023-05-14T12:47:32.966Z,60.26
2023-05-14T12:48:33.018Z,59.41
2023-05-14T12:49:33.058Z,59.05
2023-05-14T12:50:33.123Z,58.27
2023-05-14T12:51:33.179Z,59.75
2023-05-14T12:52:38.384Z,63.57